Time;durP1;ratioP1;P1;durP2;ratioP2;P2;SDS_P1;SDS_P2;PMS_P1;PMS_P2;Temp;Humidity;BMP_temperature;BMP_pressure;BME280_temperature;BME280_humidity;BME280_pressure;Samples;Min_cycle;Max_cycle;Signal;HPM_P1;HPM_P2
2022/12/07 00:01:05;;;;;;;8.67;7.87;;;3.40;90.30;;;2.94;82.56;97912.03;5032412;28;20454;-76
2022/12/07 00:03:32;;;;;;;8.20;7.40;;;3.40;90.00;;;2.51;82.81;97878.41;5029506;28;20464;-77
2022/12/07 00:06:00;;;;;;;9.37;8.47;;;3.20;90.50;;;2.92;83.12;97916.72;5032372;28;20457;-77
2022/12/07 00:08:27;;;;;;;11.03;9.03;;;3.30;91.00;;;2.73;83.03;97916.06;5034024;28;20462;-78
2022/12/07 00:10:56;;;;;;;9.50;8.50;;;3.20;90.70;;;2.61;83.04;97901.38;5022565;28;20811;-76
2022/12/07 00:13:29;;;;;;;10.27;9.20;;;3.20;90.90;;;2.62;83.56;97898.56;5034153;28;20772;-77
2022/12/07 00:15:56;;;;;;;9.83;8.63;;;3.10;91.40;;;2.05;84.71;97838.88;5018697;28;20513;-78
2022/12/07 00:18:23;;;;;;;10.97;9.87;;;3.00;91.70;;;2.61;84.37;97904.06;5030514;28;20461;-78
2022/12/07 00:20:50;;;;;;;10.80;9.80;;;3.10;91.40;;;2.55;84.21;97917.06;5031859;28;20493;-79
2022/12/07 00:23:18;;;;;;;11.70;8.90;;;3.00;91.60;;;2.62;84.34;97905.72;5061394;28;20450;-79
2022/12/07 00:25:45;;;;;;;9.90;8.90;;;3.00;91.80;;;2.37;84.58;97889.75;5047176;28;20441;-76
2022/12/07 00:28:14;;;;;;;11.70;10.00;;;3.00;91.70;;;2.38;84.61;97892.22;5039341;28;20462;-78
2022/12/07 00:30:41;;;;;;;10.87;9.67;;;3.00;91.80;;;2.37;84.90;97898.56;5036409;28;20472;-78
2022/12/07 00:33:08;;;;;;;10.87;9.73;;;2.90;92.20;;;2.37;85.15;97903.06;5047480;28;20946;-78
2022/12/07 00:35:36;;;;;;;11.57;10.23;;;2.80;92.50;;;2.43;84.89;97894.41;5031698;28;20453;-77
2022/12/07 00:38:03;;;;;;;12.67;10.37;;;2.90;92.90;;;2.39;85.37;97898.41;5015425;28;20457;-77
2022/12/07 00:40:30;;;;;;;13.50;10.07;;;2.90;92.30;;;2.30;85.34;97880.72;5030596;28;20489;-77
2022/12/07 00:42:58;;;;;;;12.07;9.47;;;2.90;92.70;;;2.19;85.73;97872.03;5020178;28;20469;-76
2022/12/07 00:45:26;;;;;;;12.10;10.63;;;2.80;92.60;;;2.22;85.55;97869.06;5032915;28;20466;-78
2022/12/07 00:47:53;;;;;;;11.53;10.33;;;2.80;93.00;;;2.55;85.43;97914.41;5030147;28;20871;-77
2022/12/07 00:50:21;;;;;;;10.73;9.63;;;2.90;93.50;;;2.47;84.69;97895.72;5021371;28;20901;-77
2022/12/07 00:52:48;;;;;;;12.70;10.60;;;2.90;92.50;;;2.08;85.96;97881.19;5030525;28;20458;-77
2022/12/07 00:55:15;;;;;;;14.13;11.17;;;2.80;92.70;;;2.34;85.55;97900.72;5019122;28;20451;-77
2022/12/07 00:57:43;;;;;;;13.30;9.20;;;2.80;93.30;;;2.09;86.16;97879.38;5046605;28;20454;-76
2022/12/07 01:00:11;;;;;;;11.17;9.63;;;2.80;93.20;;;2.29;85.65;97887.06;5044922;28;20478;-77
2022/12/07 01:02:39;;;;;;;11.93;10.50;;;2.80;93.30;;;2.49;84.77;97909.72;5040572;28;20943;-76
2022/12/07 01:05:08;;;;;;;11.33;10.13;;;2.90;92.90;;;2.31;85.33;97887.72;5014209;28;20461;-77
2022/12/07 01:07:36;;;;;;;12.10;10.70;;;2.80;92.80;;;2.30;85.87;97902.06;5025315;28;20800;-77
2022/12/07 01:10:05;;;;;;;11.30;10.10;;;2.80;93.00;;;2.39;85.49;97898.41;5024444;28;20448;-77
2022/12/07 01:12:32;;;;;;;12.30;10.60;;;2.80;93.50;;;2.24;85.91;97885.72;5027985;28;20449;-76
2022/12/07 01:14:59;;;;;;;13.47;11.20;;;2.80;93.00;;;2.04;85.75;97839.03;5023582;28;20470;-77
2022/12/07 01:17:27;;;;;;;12.03;10.73;;;2.80;93.30;;;2.06;85.23;97842.41;5023399;28;20701;-76
2022/12/07 01:19:55;;;;;;;12.13;10.73;;;2.80;93.40;;;2.43;85.12;97901.53;5045387;28;20473;-78
2022/12/07 01:22:23;;;;;;;14.13;11.70;;;2.80;93.00;;;1.94;85.28;97841.88;5030571;28;20473;-76
2022/12/07 01:24:50;;;;;;;14.17;11.53;;;2.80;92.80;;;2.28;85.77;97890.72;5020137;28;20444;-77
2022/12/07 01:27:17;;;;;;;13.53;10.83;;;2.80;93.30;;;2.14;85.62;97871.72;5039049;28;20947;-75
2022/12/07 01:29:45;;;;;;;12.57;10.97;;;2.80;93.20;;;2.35;84.57;97879.22;5036232;28;20454;-77
2022/12/07 01:32:12;;;;;;;12.80;11.50;;;2.90;92.80;;;2.14;85.88;97903.69;5028447;28;20449;-77
2022/12/07 01:34:39;;;;;;;12.90;11.57;;;2.70;92.50;;;2.26;86.03;97905.06;5030936;28;21300;-78
2022/12/07 01:37:08;;;;;;;13.53;10.80;;;2.70;93.20;;;2.37;85.59;97905.75;5030320;28;20450;-76
2022/12/07 01:39:35;;;;;;;13.40;11.00;;;2.70;93.70;;;2.37;85.33;97903.88;5045586;28;20469;-77
2022/12/07 01:42:03;;;;;;;14.33;12.83;;;2.80;92.80;;;2.41;84.67;97901.72;5028333;28;20458;-76
2022/12/07 01:44:32;;;;;;;12.90;11.33;;;2.90;92.70;;;2.42;85.10;97903.41;5040520;28;20446;-78
2022/12/07 01:47:02;;;;;;;15.00;12.00;;;2.80;92.60;;;2.54;84.87;97907.41;5028260;28;20500;-77
2022/12/07 01:49:35;;;;;;;13.80;12.50;;;2.90;92.60;;;2.49;84.70;97906.22;5025680;28;20466;-77
2022/12/07 01:52:14;;;;;;;13.27;11.77;;;2.90;92.30;;;2.54;84.60;97904.75;5030055;28;20465;-77
2022/12/07 01:54:42;;;;;;;12.40;10.20;;;3.00;92.00;;;2.23;84.82;97869.88;5028170;28;20484;-76
2022/12/07 01:57:11;;;;;;;15.53;11.90;;;2.90;92.00;;;2.11;84.77;97843.53;5016139;28;20453;-77
2022/12/07 01:59:39;;;;;;;13.27;11.60;;;2.90;92.10;;;2.40;85.20;97902.72;5023606;28;20488;-79
2022/12/07 02:02:13;;;;;;;15.53;12.30;;;2.90;92.30;;;2.53;83.94;97892.41;5026633;28;20469;-78
2022/12/07 02:04:40;;;;;;;15.23;11.90;;;2.90;92.10;;;2.50;84.42;97892.75;5041938;28;20461;-77
2022/12/07 02:07:09;;;;;;;13.80;10.87;;;2.90;91.70;;;2.64;84.08;97893.91;5032298;28;20453;-77
2022/12/07 02:09:36;;;;;;;14.10;11.53;;;3.00;91.80;;;2.60;84.17;97897.91;5042800;28;21067;-77
2022/12/07 02:12:06;;;;;;;15.03;11.50;;;2.90;92.20;;;2.63;83.98;97904.72;5012170;28;20469;-77
2022/12/07 02:14:33;;;;;;;12.03;10.80;;;3.00;92.00;;;2.67;83.96;97895.41;5020149;28;20453;-76
2022/12/07 02:17:12;;;;;;;13.97;12.13;;;3.00;92.00;;;2.54;84.47;97895.88;5026075;28;20467;-76
2022/12/07 02:20:10;;;;;;;15.67;12.87;;;3.00;92.10;;;2.66;84.19;97901.75;5023884;28;21143;-75
2022/12/07 02:23:15;;;;;;;12.83;11.10;;;3.00;92.20;;;2.48;84.24;97902.72;5028642;28;20466;-73
2022/12/07 02:26:07;;;;;;;14.57;11.90;;;2.90;91.60;;;1.89;84.68;97805.03;5024764;28;20442;-76
2022/12/07 02:28:38;;;;;;;14.73;11.30;;;2.90;91.50;;;2.54;84.37;97902.06;5028844;28;20846;-76
2022/12/07 02:31:12;;;;;;;15.27;12.10;;;2.90;92.30;;;2.48;84.08;97873.38;5027337;28;20457;-76
2022/12/07 02:33:46;;;;;;;15.63;12.07;;;2.90;92.40;;;2.51;84.61;97897.06;5027742;28;20447;-77
2022/12/07 02:36:22;;;;;;;13.43;11.93;;;2.90;92.50;;;1.73;84.25;97760.59;5027526;28;20461;-77
2022/12/07 02:38:58;;;;;;;15.50;11.40;;;3.00;92.00;;;2.42;84.57;97892.72;5027646;28;20461;-76
2022/12/07 02:41:31;;;;;;;15.97;12.47;;;2.90;91.70;;;2.16;85.14;97855.56;5042530;28;20477;-77
2022/12/07 02:44:01;;;;;;;16.30;12.03;;;2.80;92.40;;;2.22;84.90;97845.06;5024273;28;20461;-76
2022/12/07 02:46:34;;;;;;;16.73;12.53;;;2.90;92.70;;;2.43;84.48;97888.22;5019510;28;20443;-76
2022/12/07 02:49:04;;;;;;;17.83;13.23;;;2.80;92.20;;;2.61;84.26;97888.06;5030678;28;20445;-75
2022/12/07 02:51:32;;;;;;;17.33;13.30;;;2.90;92.40;;;2.33;84.21;97864.38;5031118;28;20445;-76
2022/12/07 02:54:00;;;;;;;14.40;12.00;;;2.90;92.00;;;2.57;83.53;97884.88;5024609;28;20649;-76
2022/12/07 02:59:34;;;;;;;18.20;14.10;;;3.00;91.50;;;2.43;84.52;97878.41;5041550;28;20453;-75
2022/12/07 03:02:15;;;;;;;20.53;13.53;;;2.90;91.70;;;2.45;83.77;97860.38;5044463;28;20450;-75
2022/12/07 03:04:53;;;;;;;16.43;12.80;;;2.90;91.40;;;2.30;84.22;97856.72;5041620;28;20520;-75
2022/12/07 03:07:31;;;;;;;14.10;11.73;;;2.70;91.60;;;2.06;84.82;97850.41;5037571;28;20460;-74
2022/12/07 03:10:08;;;;;;;14.70;12.60;;;2.50;92.10;;;1.92;85.67;97844.72;5033927;28;20480;-74
2022/12/07 03:12:46;;;;;;;16.03;12.50;;;2.40;92.90;;;1.87;86.15;97846.19;5030143;28;20805;-77
2022/12/07 03:15:19;;;;;;;15.50;13.00;;;2.20;93.30;;;1.82;86.72;97849.34;5021109;28;20461;-77
2022/12/07 03:17:50;;;;;;;20.50;13.93;;;2.20;94.80;;;1.82;86.71;97844.03;5028695;28;20465;-76
2022/12/07 03:20:22;;;;;;;19.10;13.33;;;2.20;95.40;;;1.69;87.37;97829.34;5034374;28;20473;-75
2022/12/07 03:22:50;;;;;;;20.17;14.40;;;2.20;96.10;;;1.83;87.07;97851.84;5029825;28;20457;-77
2022/12/07 03:25:19;;;;;;;17.70;12.93;;;2.30;95.50;;;1.81;87.35;97837.84;5043716;28;21038;-76
2022/12/07 03:27:55;;;;;;;16.70;12.90;;;2.30;95.90;;;1.76;87.01;97837.50;5028951;28;20816;-76
2022/12/07 03:30:28;;;;;;;18.37;13.50;;;2.20;95.90;;;1.72;87.12;97827.34;5028920;28;20548;-76
2022/12/07 03:33:03;;;;;;;19.30;14.70;;;2.20;96.20;;;1.75;87.36;97835.84;5028626;28;20527;-74
2022/12/07 03:35:36;;;;;;;18.70;13.87;;;2.30;95.90;;;1.77;86.97;97830.38;5011014;28;20526;-75
2022/12/07 03:38:14;;;;;;;21.07;14.30;;;2.30;95.10;;;1.50;86.48;97765.72;5045120;28;20467;-74
2022/12/07 03:40:49;;;;;;;19.37;13.70;;;2.30;94.90;;;1.95;86.45;97832.88;5029414;28;21001;-75
2022/12/07 03:43:18;;;;;;;17.73;14.03;;;2.40;94.30;;;1.88;86.36;97814.03;5021375;28;20470;-77
2022/12/07 03:46:02;;;;;;;15.10;13.17;;;2.40;94.20;;;1.91;85.18;97826.22;5018982;28;20456;-76
2022/12/07 03:48:38;;;;;;;18.80;13.60;;;2.40;93.40;;;1.95;84.69;97822.22;5044215;28;20445;-76
2022/12/07 03:51:15;;;;;;;17.57;12.87;;;2.40;93.10;;;1.72;84.61;97806.03;5049317;28;20438;-78
2022/12/07 03:53:50;;;;;;;21.83;14.30;;;2.30;92.40;;;0.81;85.47;97681.56;5032243;28;20536;-77
2022/12/07 03:56:19;;;;;;;16.43;13.90;;;2.10;92.50;;;1.47;86.03;97806.00;5031348;28;20456;-76
2022/12/07 03:58:47;;;;;;;18.57;14.57;;;2.00;93.20;;;1.44;86.54;97824.94;5027185;28;20455;-76
2022/12/07 04:01:14;;;;;;;21.23;13.97;;;1.90;94.20;;;1.24;87.14;97823.41;5028103;28;20536;-77
2022/12/07 04:03:43;;;;;;;19.40;15.00;;;1.80;94.70;;;1.25;86.88;97818.88;5030825;28;20493;-75
2022/12/07 04:06:10;;;;;;;20.00;14.50;;;1.70;94.90;;;1.25;86.67;97845.50;5044896;28;20450;-77
2022/12/07 04:08:37;;;;;;;19.43;15.17;;;1.60;94.80;;;1.02;86.95;97807.97;5029573;28;20462;-76
2022/12/07 04:11:05;;;;;;;21.23;14.67;;;1.50;95.30;;;1.10;86.81;97826.66;5025068;28;20964;-77
2022/12/07 04:14:17;;;;;;;20.50;14.80;;;1.40;96.10;;;0.89;87.69;97805.78;5034983;28;20461;-77
2022/12/07 04:16:20;;;;;;;24.17;15.70;;;1.30;97.30;;;0.95;88.34;97824.59;5027975;28;21003;-76
2022/12/07 04:18:49;;;;;;;22.00;14.60;;;1.30;99.10;;;0.89;88.49;97816.41;5028853;28;20460;-76
2022/12/07 04:21:16;;;;;;;18.80;14.90;;;1.30;99.30;;;1.05;88.13;97827.13;5032003;28;20816;-75
2022/12/07 04:23:43;;;;;;;22.87;15.67;;;1.30;99.90;;;0.60;88.33;97764.41;5026858;28;20957;-77
2022/12/07 04:26:11;;;;;;;20.57;15.70;;;1.20;99.90;;;0.91;88.62;97833.03;5027939;28;20458;-77
2022/12/07 04:28:38;;;;;;;20.20;14.87;;;1.20;99.90;;;0.53;88.45;97783.66;5029242;28;20523;-77
2022/12/07 04:31:05;;;;;;;19.47;15.43;;;1.30;99.90;;;1.03;88.34;97818.47;5030674;28;20465;-76
2022/12/07 04:33:33;;;;;;;19.97;14.20;;;1.40;99.90;;;1.14;88.16;97835.97;5030524;28;20464;-76
2022/12/07 04:36:01;;;;;;;22.20;15.87;;;1.40;99.90;;;1.08;88.69;97840.13;5032873;28;20463;-75
2022/12/07 04:38:29;;;;;;;22.17;15.23;;;1.40;99.90;;;1.25;88.91;97842.84;5028227;28;20460;-78
2022/12/07 04:40:56;;;;;;;22.57;16.10;;;1.50;99.90;;;1.37;88.03;97840.75;5029172;28;20814;-76
2022/12/07 04:43:24;;;;;;;21.80;15.87;;;1.70;99.90;;;1.43;87.92;97832.09;5025649;28;20468;-77
2022/12/07 04:45:51;;;;;;;22.80;15.67;;;1.70;99.90;;;1.52;87.52;97833.81;5025767;28;20488;-75
2022/12/07 04:48:18;;;;;;;20.80;15.33;;;1.70;99.90;;;1.29;87.16;97803.44;5027881;28;20454;-75
2022/12/07 04:50:49;;;;;;;24.47;16.10;;;1.80;99.10;;;1.09;87.97;97799.19;5044736;28;20520;-74
2022/12/07 04:53:19;;;;;;;19.03;14.40;;;1.70;98.00;;;1.31;87.89;97834.22;5023758;28;20533;-77
2022/12/07 04:55:47;;;;;;;22.53;16.30;;;1.80;98.50;;;1.07;87.38;97777.25;5028666;28;20469;-74
2022/12/07 04:58:16;;;;;;;22.00;16.23;;;1.80;98.20;;;1.49;87.00;97834.09;5028106;28;20454;-77
2022/12/07 05:00:43;;;;;;;20.83;14.83;;;1.90;97.10;;;0.97;86.89;97756.09;5038309;28;20486;-77
2022/12/07 05:03:10;;;;;;;20.40;14.67;;;2.00;95.60;;;1.58;86.36;97826.16;5050332;28;20976;-76
2022/12/07 05:05:41;;;;;;;25.90;15.07;;;2.00;95.40;;;0.85;86.72;97736.09;5023460;28;20512;-76
2022/12/07 05:08:08;;;;;;;20.87;15.27;;;2.00;94.80;;;1.44;87.20;97840.91;5029682;28;20465;-77
2022/12/07 05:10:37;;;;;;;21.80;15.60;;;2.00;94.30;;;1.51;87.18;97841.94;5046785;28;20442;-76
2022/12/07 05:13:04;;;;;;;20.80;15.60;;;2.00;94.80;;;1.68;86.29;97843.66;5021864;28;20464;-77
2022/12/07 05:15:32;;;;;;;22.33;15.03;;;2.00;94.30;;;1.65;85.97;97820.00;5025649;28;21255;-79
2022/12/07 05:17:59;;;;;;;24.73;16.57;;;2.10;93.90;;;1.74;85.54;97841.31;5019664;28;20457;-77
2022/12/07 05:20:26;;;;;;;22.60;15.47;;;2.10;93.60;;;1.38;86.42;97813.94;5023693;28;20483;-76
2022/12/07 05:22:55;;;;;;;21.63;16.80;;;2.10;93.50;;;1.64;86.27;97828.16;5028000;28;20479;-77
2022/12/07 05:25:22;;;;;;;22.33;15.73;;;2.10;93.90;;;1.52;85.25;97796.53;5052663;28;20453;-77
2022/12/07 05:27:50;;;;;;;23.67;16.90;;;2.20;92.80;;;1.64;85.41;97825.50;5058452;28;20469;-77
2022/12/07 05:30:18;;;;;;;21.33;15.30;;;2.10;93.00;;;1.84;84.89;97840.19;5059294;28;20464;-77
2022/12/07 05:32:45;;;;;;;21.00;16.23;;;2.20;92.50;;;1.93;84.62;97841.03;5057889;28;20461;-77
2022/12/07 05:35:12;;;;;;;27.93;17.17;;;2.20;92.80;;;1.87;84.36;97830.22;5031092;28;20662;-75
2022/12/07 05:37:40;;;;;;;25.30;16.20;;;2.30;91.80;;;1.78;84.92;97842.69;5045048;28;20462;-76
2022/12/07 05:40:09;;;;;;;19.17;14.80;;;2.20;91.80;;;1.82;84.48;97830.69;5029724;28;20471;-70
2022/12/07 05:42:36;;;;;;;22.83;15.23;;;2.30;91.90;;;1.85;84.34;97830.38;5029403;28;20477;-69
2022/12/07 05:45:07;;;;;;;22.77;16.37;;;2.30;91.80;;;1.97;83.74;97850.38;5017509;28;20456;-69
2022/12/07 05:47:34;;;;;;;22.10;15.63;;;2.30;91.70;;;1.99;83.47;97831.56;5042402;28;20501;-69
2022/12/07 05:50:02;;;;;;;22.23;15.17;;;2.30;91.50;;;1.92;83.64;97836.72;5014731;28;20442;-69
2022/12/07 05:52:29;;;;;;;25.90;16.40;;;2.30;91.10;;;1.97;83.29;97831.72;5028106;28;20450;-70
2022/12/07 05:54:56;;;;;;;24.20;16.27;;;2.40;90.80;;;2.02;83.41;97830.38;5030325;28;20457;-68
2022/12/07 05:57:24;;;;;;;24.40;15.93;;;2.30;91.30;;;2.09;82.97;97834.06;5044591;28;20488;-70
2022/12/07 05:59:50;;;;;;;21.67;16.40;;;2.40;91.30;;;2.03;82.46;97832.03;5028639;28;20515;-69
2022/12/07 06:02:18;;;;;;;26.83;16.40;;;2.30;90.90;;;2.17;82.41;97828.72;5024514;28;20470;-69
2022/12/07 06:04:47;;;;;;;22.53;15.43;;;2.40;90.90;;;2.10;82.75;97830.41;5023569;28;20474;-69
2022/12/07 06:07:17;;;;;;;26.00;16.77;;;2.40;90.80;;;1.97;81.67;97821.06;5036524;28;20963;-69
2022/12/07 06:09:45;;;;;;;21.23;16.27;;;2.50;90.20;;;1.78;82.03;97773.41;5028465;28;20524;-69
2022/12/07 06:14:58;;;;;;;25.37;17.43;;;2.50;90.00;;;2.20;81.32;97825.75;5025175;28;20459;-68
2022/12/07 06:17:27;;;;;;;25.13;16.10;;;2.50;89.20;;;2.20;81.63;97833.75;5024679;28;20461;-69
2022/12/07 06:19:54;;;;;;;25.80;18.10;;;2.50;89.90;;;2.04;81.94;97829.22;5011528;28;20958;-66
2022/12/07 06:22:21;;;;;;;25.50;16.63;;;2.50;89.60;;;2.07;82.13;97820.06;5023853;28;20475;-69
2022/12/07 06:24:49;;;;;;;23.67;16.90;;;2.50;89.20;;;2.12;81.14;97823.06;5023364;28;20554;-67
2022/12/07 06:27:16;;;;;;;24.30;17.07;;;2.50;88.90;;;2.03;81.81;97830.22;5014460;28;20458;-68
2022/12/07 06:29:43;;;;;;;26.93;17.03;;;2.50;88.40;;;2.04;82.26;97823.03;5036891;28;20486;-70
2022/12/07 06:32:11;;;;;;;23.70;16.37;;;2.50;89.20;;;2.14;81.60;97837.06;5040057;28;20462;-69
2022/12/07 06:34:39;;;;;;;25.90;16.90;;;2.60;89.00;;;2.21;81.14;97831.91;5019725;28;21007;-67
2022/12/07 06:37:07;;;;;;;24.17;16.17;;;2.60;88.90;;;2.31;81.26;97831.72;5017455;28;20457;-69
2022/12/07 06:39:34;;;;;;;21.80;16.67;;;2.60;89.50;;;2.37;80.64;97837.22;5033188;28;20466;-68
2022/12/07 06:42:02;;;;;;;24.57;18.20;;;2.70;88.00;;;2.22;81.03;97833.56;5019959;28;20478;-68
2022/12/07 06:44:29;;;;;;;23.57;16.80;;;2.70;87.60;;;2.14;81.59;97836.25;5024902;28;20630;-67
2022/12/07 06:46:56;;;;;;;22.00;16.40;;;2.60;88.30;;;2.32;80.46;97828.06;5016704;28;20472;-68
2022/12/07 06:49:23;;;;;;;27.17;17.40;;;2.70;87.80;;;2.25;81.49;97825.22;5021204;28;20922;-67
2022/12/07 06:51:52;;;;;;;23.97;17.33;;;2.70;87.70;;;2.42;80.65;97826.06;5017428;28;20996;-67
2022/12/07 06:54:19;;;;;;;23.60;17.70;;;2.70;88.40;;;2.35;80.96;97833.91;5014173;28;20462;-67
2022/12/07 06:56:47;;;;;;;22.87;15.93;;;2.70;88.00;;;2.33;80.81;97840.38;5037686;28;20471;-69
2022/12/07 06:59:14;;;;;;;23.10;17.00;;;2.70;87.50;;;2.59;79.91;97832.22;5023550;28;20465;-68
2022/12/07 07:01:41;;;;;;;24.00;16.07;;;2.80;87.70;;;2.55;79.76;97833.53;5019950;28;20512;-68
2022/12/07 07:04:08;;;;;;;27.73;17.00;;;2.90;86.60;;;2.62;79.48;97839.88;5034057;28;20459;-70
2022/12/07 07:06:37;;;;;;;24.47;17.20;;;2.90;86.30;;;2.35;81.18;97843.72;5037978;28;20773;-70
2022/12/07 07:09:06;;;;;;;24.20;17.17;;;2.80;87.70;;;2.54;80.40;97842.53;5007872;28;20480;-69
2022/12/07 07:11:33;;;;;;;24.27;16.20;;;2.90;87.10;;;2.69;81.00;97840.84;5021190;28;20463;-70
2022/12/07 07:14:02;;;;;;;23.40;17.13;;;3.00;88.40;;;2.76;79.46;97832.19;5011179;28;20494;-70
2022/12/07 07:16:31;;;;;;;25.90;16.73;;;3.00;86.50;;;2.71;80.95;97843.38;5022052;28;20579;-69
2022/12/07 07:18:58;;;;;;;20.30;14.33;;;3.00;87.50;;;2.42;80.07;97850.06;5026862;28;20474;-69
2022/12/07 07:21:26;;;;;;;21.70;16.43;;;3.00;85.10;;;2.83;80.28;97842.00;5029110;28;20565;-69
2022/12/07 07:23:53;;;;;;;26.67;15.77;;;3.10;86.80;;;2.76;79.21;97851.69;5041115;28;20463;-69
2022/12/07 07:26:22;;;;;;;23.40;16.40;;;3.10;84.90;;;2.62;78.75;97849.69;5025349;28;21008;-70
2022/12/07 07:28:49;;;;;;;22.57;15.40;;;3.00;84.70;;;2.60;79.33;97841.03;5022246;28;20464;-70
2022/12/07 07:31:16;;;;;;;25.90;15.97;;;3.00;85.10;;;2.73;78.11;97846.69;5022391;28;20464;-69
2022/12/07 07:33:43;;;;;;;23.33;16.97;;;3.10;84.60;;;2.81;78.17;97838.69;5024394;28;20485;-70
2022/12/07 07:36:10;;;;;;;25.23;16.60;;;3.10;84.80;;;2.72;78.82;97845.03;5025104;28;20595;-70
2022/12/07 07:38:37;;;;;;;26.90;17.37;;;3.10;84.70;;;2.53;78.98;97847.06;5029828;28;20500;-69
2022/12/07 07:41:05;;;;;;;25.70;16.10;;;3.00;84.40;;;2.92;79.08;97839.31;5025526;28;20461;-69
2022/12/07 07:43:34;;;;;;;21.93;16.80;;;3.10;85.40;;;2.95;77.98;97846.97;5023590;28;20457;-69
2022/12/07 07:46:02;;;;;;;20.67;15.13;;;3.30;84.20;;;3.00;77.68;97847.31;5017081;28;20461;-68
2022/12/07 07:48:29;;;;;;;23.83;16.70;;;3.30;84.30;;;2.94;77.71;97855.97;5046908;28;21001;-69
2022/12/07 07:50:56;;;;;;;22.43;14.90;;;3.30;83.70;;;2.78;78.27;97848.84;5026611;28;20510;-69
2022/12/07 07:53:24;;;;;;;24.43;16.33;;;3.30;83.00;;;2.77;78.32;97855.19;5027936;28;20454;-70
2022/12/07 07:55:53;;;;;;;21.60;15.10;;;3.30;83.40;;;2.98;77.65;97854.66;5024304;28;20449;-69
2022/12/07 07:58:21;;;;;;;21.10;15.40;;;3.30;83.90;;;3.04;77.78;97853.97;5029816;28;20588;-69
2022/12/07 08:00:49;;;;;;;23.30;15.83;;;3.40;83.70;;;3.14;77.54;97847.59;5029270;28;20466;-69
2022/12/07 08:03:17;;;;;;;23.17;15.63;;;3.50;83.30;;;3.08;77.91;97857.94;5031347;28;20486;-69
2022/12/07 08:05:44;;;;;;;21.77;14.87;;;3.50;83.10;;;3.14;77.36;97852.94;5020235;28;20990;-70
2022/12/07 08:08:12;;;;;;;23.77;15.77;;;3.50;83.10;;;3.19;76.99;97853.25;5024660;28;20450;-69
2022/12/07 08:10:39;;;;;;;22.83;16.60;;;3.60;83.40;;;3.18;77.21;97852.41;5024051;28;20843;-70
2022/12/07 08:13:13;;;;;;;23.03;16.33;;;3.60;83.10;;;2.70;77.57;97780.34;5023069;28;20644;-70
2022/12/07 08:15:43;;;;;;;26.70;15.83;;;3.60;83.00;;;3.11;77.72;97857.63;5018722;28;21277;-70
2022/12/07 08:18:12;;;;;;;23.73;16.30;;;3.60;82.60;;;2.93;77.90;97846.31;5038001;28;20457;-70
2022/12/07 08:20:40;;;;;;;23.97;15.83;;;3.50;82.60;;;3.00;77.53;97844.63;5035949;28;20465;-70
2022/12/07 08:23:08;;;;;;;24.97;16.83;;;3.50;82.80;;;3.28;77.08;97848.72;5020001;28;20528;-70
2022/12/07 08:25:36;;;;;;;22.40;14.70;;;3.60;82.90;;;3.01;77.99;97859.66;5036781;28;20461;-69
2022/12/07 08:28:04;;;;;;;24.07;16.47;;;3.60;82.90;;;3.00;77.39;97847.31;5025641;28;20485;-70
2022/12/07 08:30:32;;;;;;;20.00;14.17;;;3.50;82.80;;;3.17;77.53;97847.25;5038701;28;20446;-70
2022/12/07 08:32:59;;;;;;;24.00;16.03;;;3.60;83.00;;;3.34;77.25;97859.53;5019695;28;20925;-70
2022/12/07 08:35:28;;;;;;;22.30;15.80;;;3.70;83.20;;;3.32;76.77;97853.53;5023720;28;20480;-69
2022/12/07 08:37:57;;;;;;;22.27;14.80;;;3.70;82.60;;;3.29;76.53;97853.91;5019395;28;20463;-69
2022/12/07 08:40:24;;;;;;;22.90;15.10;;;3.70;82.60;;;3.15;77.69;97852.75;5038689;28;20476;-70
2022/12/07 08:42:52;;;;;;;22.63;16.50;;;3.60;83.00;;;3.27;77.06;97850.56;5022842;28;20478;-70
2022/12/07 08:45:21;;;;;;;24.63;16.23;;;3.70;82.80;;;3.34;76.46;97851.53;5037132;28;20457;-69
2022/12/07 08:47:55;;;;;;;27.37;15.70;;;3.80;82.60;;;3.25;77.26;97849.88;5031861;28;20488;-80
2022/12/07 08:50:23;;;;;;;18.73;14.83;;;3.70;82.50;;;3.22;77.53;97842.22;5025113;28;20455;-76
2022/12/07 08:52:56;;;;;;;20.83;14.90;;;3.70;82.50;;;3.14;77.31;97842.25;5022952;28;20469;-77
2022/12/07 08:55:23;;;;;;;21.90;13.33;;;3.70;82.80;;;3.31;77.07;97841.19;5020783;28;20453;-81
2022/12/07 08:57:52;;;;;;;23.13;14.63;;;3.80;82.60;;;3.32;77.25;97856.22;5024331;28;20527;-69
2022/12/07 09:00:19;;;;;;;20.50;13.53;;;3.80;82.60;;;3.24;77.32;97858.91;5032262;28;20461;-69
2022/12/07 09:02:47;;;;;;;17.40;11.03;;;3.80;82.40;;;3.12;77.42;97850.44;5031945;28;20472;-70
2022/12/07 09:05:15;;;;;;;21.47;13.30;;;3.70;82.30;;;3.26;77.34;97852.38;5021114;28;20512;-69
2022/12/07 09:07:44;;;;;;;21.80;13.63;;;3.80;82.70;;;3.24;77.41;97861.56;5038521;28;20462;-70
2022/12/07 09:10:13;;;;;;;24.67;11.60;;;3.80;82.30;;;3.18;77.48;97863.09;5023700;28;20474;-70
2022/12/07 09:12:40;;;;;;;16.20;11.00;;;3.70;82.20;;;3.23;77.10;97859.91;5021913;28;20497;-70
2022/12/07 09:15:09;;;;;;;18.67;12.10;;;3.70;82.20;;;3.40;76.60;97858.84;5017063;28;22299;-68
2022/12/07 09:17:37;;;;;;;18.23;12.47;;;3.80;82.30;;;3.25;77.58;97865.91;5022692;28;20462;-71
2022/12/07 09:20:07;;;;;;;17.70;11.87;;;3.80;82.30;;;3.47;76.59;97869.66;5031277;28;22279;-70
2022/12/07 09:22:34;;;;;;;17.00;11.87;;;3.90;82.70;;;3.62;76.83;97871.59;5022955;28;20470;-69
2022/12/07 09:25:02;;;;;;;18.03;10.90;;;3.90;82.80;;;3.39;77.39;97873.19;5024646;28;20463;-70
2022/12/07 09:27:32;;;;;;;14.97;11.07;;;4.00;82.60;;;3.25;78.18;97880.09;5041491;28;20475;-70
2022/12/07 09:29:59;;;;;;;16.57;11.50;;;3.90;82.90;;;3.25;78.32;97869.41;5021581;28;20505;-70
2022/12/07 09:32:27;;;;;;;20.40;11.20;;;3.80;83.30;;;3.22;78.90;97866.25;5041532;28;20499;-72
2022/12/07 09:34:54;;;;;;;16.40;11.60;;;3.70;83.60;;;3.41;78.55;97870.38;5020433;28;20508;-70
2022/12/07 09:37:21;;;;;;;17.93;11.63;;;3.80;83.60;;;3.39;78.55;97865.19;5019371;28;20456;-71
2022/12/07 09:39:48;;;;;;;18.07;11.33;;;3.80;83.80;;;3.12;78.96;97871.78;5020508;28;20446;-70
2022/12/07 09:42:29;;;;;;;15.40;11.10;;;3.70;83.20;;;3.24;79.37;97864.25;5019039;28;21158;-71
2022/12/07 09:44:59;;;;;;;14.63;11.20;;;3.70;83.70;;;3.33;79.11;97865.88;5021358;28;20454;-71
2022/12/07 09:47:27;;;;;;;16.67;11.37;;;3.80;83.90;;;3.50;78.40;97864.00;5021007;28;20462;-71
2022/12/07 09:50:01;;;;;;;16.27;10.80;;;3.90;84.10;;;3.45;79.09;97865.50;5019453;28;20461;-70
2022/12/07 09:52:30;;;;;;;13.53;9.80;;;3.90;84.10;;;3.32;79.23;97866.91;5019862;28;20465;-70
2022/12/07 09:54:57;;;;;;;17.33;12.20;;;3.90;84.00;;;3.19;78.90;97858.59;5039389;28;20484;-71
2022/12/07 09:57:30;;;;;;;15.80;10.40;;;3.80;84.00;;;3.13;80.15;97862.78;5041858;28;20465;-71
2022/12/07 10:00:03;;;;;;;18.30;11.30;;;3.80;84.60;;;3.05;80.63;97852.97;5037250;28;21456;-69
2022/12/07 10:02:38;;;;;;;16.70;11.73;;;3.70;85.00;;;3.22;80.61;97867.09;5017352;28;20469;-71
2022/12/07 10:05:07;;;;;;;14.40;10.77;;;3.70;86.10;;;3.17;80.53;97868.63;5037686;28;20460;-70
2022/12/07 10:07:34;;;;;;;21.57;12.10;;;3.70;85.80;;;3.27;80.76;97861.25;5019671;28;21749;-70
2022/12/07 10:10:05;;;;;;;19.90;11.80;;;3.70;85.90;;;3.43;79.73;97862.19;5021209;28;20463;-70
2022/12/07 10:13:01;;;;;;;14.43;10.87;;;3.80;86.00;;;3.30;79.49;97846.69;5021736;28;20461;-71
2022/12/07 10:15:49;;;;;;;18.30;12.37;;;3.80;85.20;;;3.40;79.31;97858.84;5019190;28;20449;-69
2022/12/07 10:18:27;;;;;;;15.00;10.57;;;3.80;85.00;;;3.32;79.75;97850.88;5018789;28;20448;-71
2022/12/07 10:21:14;;;;;;;16.53;11.50;;;3.80;85.10;;;3.76;78.23;97840.66;5040004;28;20469;-70
2022/12/07 10:23:43;;;;;;;16.03;10.83;;;4.00;84.80;;;3.63;77.81;97847.38;5016486;28;21048;-71
2022/12/07 10:26:33;;;;;;;18.27;11.30;;;4.00;84.30;;;3.85;77.03;97838.75;5035958;28;20488;-70
2022/12/07 10:29:13;;;;;;;14.37;10.53;;;4.10;84.00;;;3.30;77.66;97767.44;5018379;28;20462;-70
2022/12/07 10:31:43;;;;;;;15.97;10.07;;;4.20;83.70;;;3.85;77.02;97844.91;5020888;28;20465;-70
2022/12/07 10:34:24;;;;;;;17.93;11.90;;;4.20;83.10;;;4.06;76.31;97832.78;5022050;28;20463;-71
2022/12/07 10:36:53;;;;;;;17.20;12.00;;;4.30;83.30;;;3.73;77.46;97822.28;5023399;28;20552;-70